Time;durP1;ratioP1;P1;durP2;ratioP2;P2;SDS_P1;SDS_P2;PMS_P1;PMS_P2;Temp;Humidity;BMP_temperature;BMP_pressure;BME280_temperature;BME280_humidity;BME280_pressure;Samples;Min_cycle;Max_cycle;Signal;HPM_P1;HPM_P2
2023/07/31 00:00:05;;;;;;;5.97;4.03;;;21.90;53.60;;;;;;4986806;28;114208;-79
2023/07/31 00:02:32;;;;;;;5.70;3.22;;;22.00;53.70;;;;;;4985774;28;114570;-79
2023/07/31 00:05:00;;;;;;;4.68;2.88;;;22.00;53.70;;;;;;4984557;28;115046;-78
2023/07/31 00:07:27;;;;;;;5.70;3.80;;;22.00;53.60;;;;;;4985680;28;114736;-79
2023/07/31 00:09:56;;;;;;;6.82;4.20;;;22.10;53.60;;;;;;4985204;28;114199;-79
2023/07/31 00:12:23;;;;;;;4.95;3.10;;;22.00;54.00;;;;;;4953655;28;114124;-78
2023/07/31 00:14:50;;;;;;;6.13;3.03;;;22.10;53.60;;;;;;4985902;28;114904;-79
2023/07/31 00:17:17;;;;;;;5.85;3.17;;;22.10;53.50;;;;;;4984064;28;117702;-78
2023/07/31 00:19:46;;;;;;;5.10;3.22;;;22.10;53.50;;;;;;4984437;28;114374;-79
2023/07/31 00:22:13;;;;;;;5.97;3.28;;;22.20;53.40;;;;;;4986508;28;114392;-79
2023/07/31 00:24:40;;;;;;;5.22;3.10;;;22.10;53.30;;;;;;4985293;28;114820;-78
2023/07/31 00:27:07;;;;;;;7.00;4.22;;;22.20;53.40;;;;;;4985193;28;114665;-79
2023/07/31 00:29:34;;;;;;;6.15;3.40;;;22.20;53.50;;;;;;4985924;28;114434;-78
2023/07/31 00:32:04;;;;;;;5.95;3.30;;;22.10;53.40;;;;;;4973951;28;114270;-79
2023/07/31 00:34:31;;;;;;;5.07;3.15;;;22.20;53.40;;;;;;4985014;28;114933;-78
2023/07/31 00:36:58;;;;;;;4.78;3.22;;;22.20;53.40;;;;;;4985198;28;114575;-78
2023/07/31 00:39:25;;;;;;;5.00;3.03;;;22.20;53.40;;;;;;4986502;28;114141;-79
2023/07/31 00:41:52;;;;;;;5.97;3.22;;;22.20;53.40;;;;;;4986479;28;114253;-78
2023/07/31 00:44:19;;;;;;;5.80;2.95;;;22.20;53.40;;;;;;4987303;28;114996;-78
2023/07/31 00:46:46;;;;;;;5.40;3.20;;;22.20;53.30;;;;;;4986811;28;114608;-78
2023/07/31 00:49:13;;;;;;;4.55;2.90;;;22.30;53.90;;;;;;4986392;28;114517;-79
2023/07/31 00:51:40;;;;;;;4.68;2.67;;;22.20;53.30;;;;;;4986386;28;114178;-78
2023/07/31 00:54:07;;;;;;;6.30;4.72;;;22.20;53.30;;;;;;4984395;28;117258;-78
2023/07/31 00:56:34;;;;;;;4.60;2.95;;;22.30;53.90;;;;;;4967770;28;117661;-79
2023/07/31 00:59:01;;;;;;;6.85;3.53;;;22.20;53.40;;;;;;4985206;28;114148;-78
2023/07/31 01:01:28;;;;;;;4.28;2.80;;;22.20;53.20;;;;;;4985835;28;114369;-78
2023/07/31 01:03:59;;;;;;;4.70;2.92;;;22.20;53.60;;;;;;4985449;28;114905;-79
2023/07/31 01:06:45;;;;;;;4.95;2.72;;;22.20;53.40;;;;;;4954472;28;115155;-79
2023/07/31 01:09:20;;;;;;;3.85;2.28;;;22.20;53.30;;;;;;4988248;28;114201;-79
2023/07/31 01:11:52;;;;;;;5.35;2.65;;;22.20;54.00;;;;;;4988781;28;114375;-78
2023/07/31 01:14:19;;;;;;;5.43;3.20;;;22.20;53.50;;;;;;4987555;28;115050;-79
2023/07/31 01:16:46;;;;;;;4.75;2.65;;;22.10;53.50;;;;;;4986880;28;117207;-78
2023/07/31 01:19:14;;;;;;;4.00;2.40;;;22.10;53.80;;;;;;4971742;28;114397;-79
2023/07/31 01:21:57;;;;;;;4.10;2.72;;;22.10;53.70;;;;;;4989429;28;114179;-78
2023/07/31 01:24:49;;;;;;;5.22;2.42;;;22.10;53.60;;;;;;4987314;28;116183;-78
2023/07/31 01:27:19;;;;;;;3.67;1.98;;;22.10;53.70;;;;;;4987930;28;115060;-79
2023/07/31 01:29:49;;;;;;;5.28;2.50;;;22.10;53.80;;;;;;4955417;28;114689;-78
2023/07/31 01:32:17;;;;;;;4.53;2.20;;;22.10;53.70;;;;;;4987982;28;114645;-78
2023/07/31 01:34:44;;;;;;;3.33;1.92;;;22.10;53.90;;;;;;4986367;28;115313;-78
2023/07/31 01:37:11;;;;;;;4.05;2.40;;;22.10;53.90;;;;;;4970497;28;114977;-78
2023/07/31 01:39:38;;;;;;;3.67;2.30;;;22.10;53.80;;;;;;4989157;28;114606;-79
2023/07/31 01:42:05;;;;;;;4.18;2.20;;;22.10;53.70;;;;;;4987886;28;114480;-79
2023/07/31 01:44:32;;;;;;;3.85;2.22;;;22.10;53.60;;;;;;4987074;28;115216;-78
2023/07/31 01:47:00;;;;;;;3.75;2.20;;;22.20;53.60;;;;;;4986800;28;115030;-79
2023/07/31 01:49:27;;;;;;;4.85;2.40;;;22.10;53.60;;;;;;4988017;28;114299;-79
2023/07/31 01:51:54;;;;;;;3.42;2.08;;;22.20;53.60;;;;;;4988058;28;114365;-80
2023/07/31 01:54:22;;;;;;;4.90;2.45;;;22.20;53.60;;;;;;4988044;28;116061;-79
2023/07/31 01:56:49;;;;;;;3.38;2.00;;;22.20;53.50;;;;;;4986800;28;114643;-78
2023/07/31 01:59:16;;;;;;;4.13;1.92;;;22.20;53.60;;;;;;4971001;28;114304;-78
2023/07/31 02:01:43;;;;;;;3.03;1.80;;;22.10;53.70;;;;;;4971158;28;114542;-78
2023/07/31 02:04:10;;;;;;;3.15;1.92;;;22.10;53.50;;;;;;4987978;28;115225;-79
2023/07/31 02:06:37;;;;;;;3.00;1.90;;;22.10;53.70;;;;;;4986822;28;115159;-78
2023/07/31 02:09:05;;;;;;;3.95;1.90;;;22.10;53.50;;;;;;4971382;28;114334;-79
2023/07/31 02:11:33;;;;;;;3.03;2.00;;;22.10;53.50;;;;;;4970803;28;114451;-78
2023/07/31 02:14:00;;;;;;;2.75;1.50;;;22.20;53.50;;;;;;4987843;28;115366;-78
2023/07/31 02:16:27;;;;;;;3.00;1.70;;;22.10;53.40;;;;;;4986229;28;115147;-79
2023/07/31 02:18:54;;;;;;;3.35;1.73;;;22.20;53.50;;;;;;4986956;28;114372;-80
2023/07/31 02:21:21;;;;;;;2.78;1.63;;;22.20;53.40;;;;;;4987382;28;114273;-79
2023/07/31 02:23:48;;;;;;;2.80;1.60;;;22.20;53.30;;;;;;4985838;28;114920;-78
2023/07/31 02:26:15;;;;;;;4.07;1.80;;;22.20;53.30;;;;;;4953568;28;117415;-78
2023/07/31 02:28:43;;;;;;;3.00;1.90;;;22.20;53.40;;;;;;4970669;28;114330;-79
2023/07/31 02:31:11;;;;;;;3.38;1.65;;;22.20;53.40;;;;;;4987143;28;114211;-79
2023/07/31 02:33:39;;;;;;;3.08;1.60;;;22.20;53.40;;;;;;4987190;28;115762;-79
2023/07/31 02:36:06;;;;;;;3.92;1.60;;;22.20;53.30;;;;;;4985782;28;114654;-79
2023/07/31 02:38:33;;;;;;;4.55;2.25;;;22.20;53.30;;;;;;4970541;28;114346;-79
2023/07/31 02:41:00;;;;;;;3.35;1.80;;;22.20;53.30;;;;;;4988637;28;114405;-79
2023/07/31 02:43:27;;;;;;;2.42;1.67;;;22.20;53.30;;;;;;4987559;28;114890;-78
2023/07/31 02:45:54;;;;;;;3.15;1.80;;;22.10;53.40;;;;;;4986920;28;114976;-78
2023/07/31 02:48:23;;;;;;;3.00;1.77;;;22.00;53.50;;;;;;4986422;28;114392;-79
2023/07/31 02:50:50;;;;;;;3.13;1.48;;;22.00;53.50;;;;;;4986186;28;114593;-78
2023/07/31 02:53:17;;;;;;;2.50;1.50;;;22.10;53.50;;;;;;4987036;28;114913;-78
2023/07/31 02:55:44;;;;;;;3.38;1.60;;;22.00;53.60;;;;;;4985910;28;114832;-78
2023/07/31 02:58:11;;;;;;;2.60;1.70;;;21.90;53.70;;;;;;4986632;28;114537;-79
2023/07/31 03:00:43;;;;;;;3.25;1.58;;;21.90;53.80;;;;;;4970251;28;114241;-79
2023/07/31 03:03:10;;;;;;;3.22;1.70;;;21.90;53.80;;;;;;4986860;28;115046;-79
2023/07/31 03:05:37;;;;;;;2.70;1.60;;;21.90;53.90;;;;;;4987075;28;115133;-79
2023/07/31 03:08:05;;;;;;;3.03;1.90;;;21.90;53.80;;;;;;4970082;28;114831;-79
2023/07/31 03:10:32;;;;;;;3.78;1.60;;;22.00;53.80;;;;;;4986689;28;114166;-78
2023/07/31 03:12:59;;;;;;;3.28;2.00;;;21.90;53.70;;;;;;4986221;28;114939;-79
2023/07/31 03:15:26;;;;;;;2.53;1.58;;;22.00;53.70;;;;;;4986264;28;116224;-78
2023/07/31 03:17:53;;;;;;;2.90;1.70;;;22.00;53.60;;;;;;4987605;28;114120;-79
2023/07/31 03:20:20;;;;;;;3.03;1.80;;;22.00;53.60;;;;;;4970121;28;114168;-79
2023/07/31 03:22:47;;;;;;;4.50;2.22;;;22.00;53.60;;;;;;4985907;28;115432;-80
2023/07/31 03:25:14;;;;;;;3.10;1.77;;;21.90;53.70;;;;;;4985721;28;114605;-78
2023/07/31 03:27:41;;;;;;;2.63;1.90;;;21.80;53.90;;;;;;4968767;28;114233;-78
2023/07/31 03:30:09;;;;;;;3.90;1.95;;;21.80;54.00;;;;;;4987311;28;114267;-80
2023/07/31 03:32:36;;;;;;;3.40;1.80;;;21.80;54.10;;;;;;4968628;28;114926;-79
2023/07/31 03:35:05;;;;;;;2.95;1.77;;;21.80;54.10;;;;;;4953026;28;117889;-79
2023/07/31 03:37:32;;;;;;;3.15;1.77;;;21.80;54.10;;;;;;4986867;28;114069;-79
2023/07/31 03:39:59;;;;;;;4.15;2.55;;;21.70;54.20;;;;;;4986150;28;114609;-78
2023/07/31 03:42:27;;;;;;;4.10;2.50;;;21.60;54.90;;;;;;4969055;28;114935;-78
2023/07/31 03:44:54;;;;;;;6.80;2.47;;;21.50;54.60;;;;;;4986824;28;114705;-79
2023/07/31 03:47:21;;;;;;;4.90;2.58;;;21.30;54.60;;;;;;4987193;28;114413;-79
2023/07/31 03:49:48;;;;;;;3.88;2.20;;;21.30;54.90;;;;;;4987311;28;114495;-79
2023/07/31 03:52:15;;;;;;;4.57;3.38;;;21.10;55.40;;;;;;4986318;28;114957;-76
2023/07/31 03:54:44;;;;;;;5.38;2.78;;;21.10;55.60;;;;;;4969388;28;115501;-77
2023/07/31 03:57:11;;;;;;;3.22;2.20;;;21.10;55.90;;;;;;4986361;28;114186;-77
2023/07/31 03:59:39;;;;;;;3.50;2.10;;;21.10;55.70;;;;;;4970631;28;114259;-78
2023/07/31 04:02:06;;;;;;;3.45;1.98;;;21.10;55.70;;;;;;4984735;28;117018;-79
2023/07/31 04:04:33;;;;;;;3.80;2.25;;;21.10;55.70;;;;;;4986337;28;114642;-78
2023/07/31 04:07:02;;;;;;;4.45;2.42;;;21.20;55.80;;;;;;4985544;28;114334;-79
2023/07/31 04:09:29;;;;;;;3.80;2.60;;;21.30;55.60;;;;;;4987046;28;114324;-77
2023/07/31 04:11:56;;;;;;;4.93;2.90;;;21.30;55.40;;;;;;4984517;28;114876;-78
2023/07/31 04:14:23;;;;;;;3.72;2.80;;;21.40;55.20;;;;;;4985662;28;116838;-79
2023/07/31 04:16:50;;;;;;;4.53;3.03;;;21.50;55.20;;;;;;4986951;28;114258;-78
2023/07/31 04:19:17;;;;;;;5.22;3.17;;;21.50;55.00;;;;;;4969512;28;114356;-79
2023/07/31 04:21:44;;;;;;;4.25;2.78;;;21.60;54.80;;;;;;4984358;28;116135;-81
2023/07/31 04:24:11;;;;;;;4.45;2.90;;;21.70;54.70;;;;;;4986337;28;114097;-77
2023/07/31 04:26:38;;;;;;;4.95;3.28;;;21.70;54.70;;;;;;4986214;28;114281;-77
2023/07/31 04:29:06;;;;;;;5.18;3.05;;;21.70;54.60;;;;;;4969121;28;114247;-78
2023/07/31 04:31:33;;;;;;;4.53;2.85;;;21.70;54.50;;;;;;4967894;28;115095;-78
2023/07/31 04:34:05;;;;;;;3.92;2.83;;;21.70;54.50;;;;;;4985441;28;115065;-79
2023/07/31 04:36:33;;;;;;;4.13;3.03;;;21.70;54.50;;;;;;4984506;28;114217;-78
2023/07/31 04:39:01;;;;;;;4.78;3.20;;;21.80;54.30;;;;;;4986048;28;114076;-78
2023/07/31 04:41:28;;;;;;;3.88;2.60;;;21.80;54.20;;;;;;4984404;28;115015;-78
2023/07/31 04:43:55;;;;;;;4.50;2.55;;;21.80;54.20;;;;;;4984499;28;115027;-78
2023/07/31 04:46:22;;;;;;;3.60;2.70;;;21.90;54.00;;;;;;4986561;28;114110;-77
2023/07/31 04:48:49;;;;;;;4.70;2.70;;;21.90;53.90;;;;;;4986670;28;114147;-77
2023/07/31 04:51:16;;;;;;;3.58;2.67;;;21.90;53.90;;;;;;4983494;28;117031;-77
2023/07/31 04:53:43;;;;;;;9.70;2.70;;;21.90;53.90;;;;;;4985720;28;114750;-78
2023/07/31 04:56:10;;;;;;;3.83;2.60;;;21.80;54.60;;;;;;4986766;28;114419;-78
2023/07/31 04:58:37;;;;;;;3.58;2.55;;;21.80;54.40;;;;;;4986408;28;114206;-79
2023/07/31 05:01:04;;;;;;;4.18;2.50;;;21.70;54.70;;;;;;4985112;28;115635;-78
2023/07/31 05:03:32;;;;;;;5.13;3.30;;;21.70;54.60;;;;;;4985834;28;114062;-78
2023/07/31 05:05:59;;;;;;;4.80;2.60;;;21.70;54.80;;;;;;4986341;28;114419;-78
2023/07/31 05:08:26;;;;;;;3.95;2.75;;;21.50;54.90;;;;;;4969208;28;114498;-79
2023/07/31 05:10:53;;;;;;;4.07;2.67;;;21.40;55.30;;;;;;4985128;28;115376;-79
2023/07/31 05:13:20;;;;;;;5.15;2.60;;;21.40;55.20;;;;;;4983488;28;115913;-79
2023/07/31 05:15:49;;;;;;;4.03;2.58;;;21.50;55.00;;;;;;4985318;28;114160;-78
2023/07/31 05:18:16;;;;;;;5.20;3.03;;;21.60;55.00;;;;;;4985631;28;114368;-78
2023/07/31 05:20:43;;;;;;;4.20;2.40;;;21.70;54.80;;;;;;4984703;28;114873;-78
2023/07/31 05:23:10;;;;;;;4.93;2.45;;;21.80;54.40;;;;;;4967274;28;114620;-78
2023/07/31 05:25:37;;;;;;;4.68;3.28;;;21.80;54.50;;;;;;4968115;28;114102;-79
2023/07/31 05:28:05;;;;;;;5.05;2.28;;;21.80;54.10;;;;;;4985605;28;114446;-78
2023/07/31 05:30:32;;;;;;;5.18;2.55;;;21.70;53.90;;;;;;4983569;28;114936;-79
2023/07/31 05:32:59;;;;;;;6.35;3.10;;;21.60;54.20;;;;;;4985179;28;114638;-79
2023/07/31 05:35:26;;;;;;;3.58;1.98;;;21.60;54.40;;;;;;4984446;28;114304;-79
2023/07/31 05:37:53;;;;;;;4.25;2.40;;;21.50;54.70;;;;;;4985833;28;114380;-78
2023/07/31 05:40:20;;;;;;;5.43;2.97;;;21.50;54.60;;;;;;4966790;28;115360;-79
2023/07/31 05:42:47;;;;;;;3.97;2.22;;;21.70;54.20;;;;;;4985126;28;114550;-78
2023/07/31 05:45:17;;;;;;;3.88;2.03;;;21.80;54.10;;;;;;4985614;28;114227;-79
2023/07/31 05:47:44;;;;;;;4.53;2.50;;;21.80;54.10;;;;;;4985758;28;114336;-79
2023/07/31 05:50:11;;;;;;;3.88;2.28;;;21.90;54.00;;;;;;4983301;28;115062;-79
2023/07/31 05:52:38;;;;;;;4.45;2.50;;;22.10;53.90;;;;;;4969461;28;114654;-80
2023/07/31 05:55:05;;;;;;;3.72;2.58;;;22.00;54.10;;;;;;4987928;28;114344;-78
2023/07/31 05:57:32;;;;;;;4.10;2.38;;;22.00;54.00;;;;;;4971580;28;114382;-79
2023/07/31 06:00:00;;;;;;;5.00;2.90;;;22.10;54.00;;;;;;4970500;28;115243;-79
2023/07/31 06:02:33;;;;;;;4.53;2.50;;;22.10;54.30;;;;;;4987913;28;114662;-79
2023/07/31 06:05:01;;;;;;;4.23;2.87;;;22.20;53.90;;;;;;4986684;28;114380;-80
2023/07/31 06:07:28;;;;;;;4.88;2.80;;;22.20;54.10;;;;;;4988695;28;114343;-79
2023/07/31 06:09:57;;;;;;;3.97;2.63;;;22.20;53.70;;;;;;4988436;28;114943;-78
2023/07/31 06:12:24;;;;;;;4.28;2.35;;;22.20;53.90;;;;;;4987973;28;115686;-79
2023/07/31 06:14:51;;;;;;;4.47;3.00;;;22.30;53.40;;;;;;4988625;28;114249;-78
2023/07/31 06:17:18;;;;;;;6.03;2.28;;;22.30;53.80;;;;;;4988768;28;114223;-78
2023/07/31 06:19:46;;;;;;;4.28;2.72;;;22.40;53.40;;;;;;4987683;28;114889;-78
2023/07/31 06:22:13;;;;;;;3.95;2.63;;;22.50;53.10;;;;;;4987572;28;115463;-77
2023/07/31 06:24:40;;;;;;;3.92;2.35;;;22.60;52.30;;;;;;4988257;28;114378;-79
2023/07/31 06:27:07;;;;;;;3.47;2.22;;;22.70;52.10;;;;;;4987934;28;114485;-78
2023/07/31 06:29:34;;;;;;;6.75;2.75;;;22.70;52.20;;;;;;4987362;28;114934;-78
2023/07/31 06:32:02;;;;;;;6.53;3.05;;;22.70;49.70;;;;;;4969838;28;117423;-78
2023/07/31 06:34:30;;;;;;;7.70;2.60;;;22.50;50.70;;;;;;4988769;28;114349;-79
2023/07/31 06:36:57;;;;;;;5.55;2.42;;;22.60;49.70;;;;;;4987335;28;114775;-78
2023/07/31 06:39:24;;;;;;;5.60;2.70;;;22.50;49.70;;;;;;4987544;28;114832;-79
2023/07/31 06:41:51;;;;;;;3.75;2.08;;;22.50;49.40;;;;;;4987670;28;115130;-80
2023/07/31 06:44:20;;;;;;;5.05;2.97;;;22.50;49.30;;;;;;4987289;28;114020;-79
2023/07/31 06:46:47;;;;;;;6.13;2.70;;;22.50;50.10;;;;;;4988827;28;114226;-78
2023/07/31 06:49:16;;;;;;;6.28;3.08;;;22.60;50.40;;;;;;4987274;28;115113;-78
2023/07/31 06:51:44;;;;;;;6.75;4.15;;;22.70;50.40;;;;;;4987160;28;115257;-79
2023/07/31 06:54:11;;;;;;;4.07;2.83;;;22.90;50.30;;;;;;4986882;28;114545;-78
2023/07/31 06:56:38;;;;;;;6.32;4.18;;;23.00;49.80;;;;;;4988484;28;114253;-79
2023/07/31 06:59:07;;;;;;;4.32;3.10;;;23.00;49.40;;;;;;4987356;28;115492;-78
2023/07/31 07:01:34;;;;;;;5.78;3.00;;;23.00;49.80;;;;;;4953487;28;117704;-79
2023/07/31 07:04:02;;;;;;;9.63;3.30;;;23.00;49.70;;;;;;4988303;28;114419;-78
2023/07/31 07:06:29;;;;;;;6.88;3.65;;;23.10;49.60;;;;;;4987988;28;114182;-80
2023/07/31 07:08:56;;;;;;;6.45;3.10;;;23.10;49.90;;;;;;4969338;28;114959;-78
2023/07/31 07:11:23;;;;;;;5.88;3.53;;;23.10;49.10;;;;;;4986287;28;114593;-79
2023/07/31 07:13:50;;;;;;;7.55;4.03;;;23.20;49.30;;;;;;4986061;28;114485;-78
2023/07/31 07:16:17;;;;;;;4.95;3.50;;;23.10;49.30;;;;;;4988125;28;114345;-78
2023/07/31 07:18:44;;;;;;;4.07;2.72;;;23.20;49.40;;;;;;4968717;28;115560;-78
2023/07/31 07:21:28;;;;;;;;;;;23.10;48.50;;;;;;4986208;28;115010;-78
2023/07/31 07:23:55;;;;;;;6.93;3.20;;;23.10;49.30;;;;;;4987629;28;114360;-80
2023/07/31 07:26:25;;;;;;;5.72;2.72;;;23.10;48.60;;;;;;4987645;28;114371;-77
2023/07/31 07:28:52;;;;;;;5.43;3.08;;;23.30;48.50;;;;;;4985198;28;115658;-78
2023/07/31 07:31:19;;;;;;;5.72;3.20;;;23.40;47.50;;;;;;4985821;28;116016;-79
2023/07/31 07:33:46;;;;;;;5.00;2.90;;;23.50;47.50;;;;;;4985978;28;114401;-79
2023/07/31 07:36:14;;;;;;;5.38;2.20;;;23.60;46.90;;;;;;4985576;28;114298;-79
2023/07/31 07:38:41;;;;;;;5.20;3.20;;;23.70;46.30;;;;;;4985185;28;114984;-79
2023/07/31 07:41:08;;;;;;;6.43;3.47;;;23.80;46.30;;;;;;4986581;28;115076;-79
2023/07/31 07:43:35;;;;;;;6.15;3.92;;;23.80;47.20;;;;;;4985641;28;114109;-80
2023/07/31 07:46:02;;;;;;;4.38;2.90;;;23.80;47.30;;;;;;4969646;28;114427;-79
2023/07/31 07:48:29;;;;;;;5.00;3.20;;;23.90;46.60;;;;;;4986257;28;115403;-79
2023/07/31 07:50:56;;;;;;;4.85;2.60;;;23.80;46.50;;;;;;4984936;28;115168;-81
2023/07/31 07:53:24;;;;;;;5.07;3.25;;;23.80;46.60;;;;;;4985274;28;114143;-79
2023/07/31 07:55:51;;;;;;;4.35;3.30;;;23.80;47.10;;;;;;4969569;28;114171;-78
2023/07/31 07:58:18;;;;;;;5.40;2.83;;;23.80;46.60;;;;;;4985016;28;115058;-78
2023/07/31 08:00:51;;;;;;;4.65;2.85;;;23.80;46.20;;;;;;4986452;28;114687;-79
2023/07/31 08:03:19;;;;;;;5.72;3.47;;;23.90;46.20;;;;;;4985866;28;114442;-79
2023/07/31 08:05:46;;;;;;;5.32;2.90;;;24.00;46.30;;;;;;4985862;28;114250;-79
2023/07/31 08:08:16;;;;;;;5.97;3.03;;;24.10;45.60;;;;;;4984377;28;115549;-78
2023/07/31 08:10:43;;;;;;;6.72;2.88;;;24.20;45.20;;;;;;4985950;28;114774;-78
2023/07/31 08:13:11;;;;;;;3.92;2.42;;;24.20;45.30;;;;;;4986838;28;114234;-79
2023/07/31 08:15:40;;;;;;;7.75;3.85;;;24.30;44.60;;;;;;4984915;28;114292;-79
2023/07/31 08:18:07;;;;;;;5.00;3.00;;;24.30;44.30;;;;;;4984727;28;114988;-80
2023/07/31 08:20:35;;;;;;;4.72;2.92;;;24.40;44.80;;;;;;4985728;28;114671;-79
2023/07/31 08:23:02;;;;;;;5.60;2.70;;;24.50;45.30;;;;;;4985922;28;114371;-79
2023/07/31 08:25:29;;;;;;;6.15;3.63;;;24.50;44.50;;;;;;4985963;28;114588;-78
2023/07/31 08:27:57;;;;;;;6.85;2.85;;;24.50;44.60;;;;;;4984805;28;114924;-79
2023/07/31 08:30:24;;;;;;;6.45;3.25;;;24.50;44.80;;;;;;4984481;28;114738;-79
2023/07/31 08:32:51;;;;;;;7.57;3.22;;;24.30;45.30;;;;;;4985921;28;114474;-79
2023/07/31 08:35:18;;;;;;;6.03;2.83;;;24.20;44.90;;;;;;4984269;28;114275;-79
2023/07/31 08:37:46;;;;;;;5.45;4.00;;;24.30;44.90;;;;;;4968786;28;114905;-79
2023/07/31 08:40:13;;;;;;;6.47;3.28;;;24.40;45.00;;;;;;4986033;28;115735;-80
2023/07/31 08:42:47;;;;;;;5.68;2.90;;;24.50;43.90;;;;;;4986491;28;114287;-79
2023/07/31 08:45:15;;;;;;;6.85;3.80;;;24.60;42.40;;;;;;4968872;28;114498;-80
2023/07/31 08:47:44;;;;;;;7.80;3.47;;;24.50;43.50;;;;;;4985249;28;114980;-79
2023/07/31 08:50:15;;;;;;;6.07;3.15;;;24.60;42.80;;;;;;4968437;28;117475;-78
2023/07/31 08:52:42;;;;;;;7.85;3.65;;;24.60;43.80;;;;;;4985064;28;114242;-79
2023/07/31 08:55:09;;;;;;;5.78;2.72;;;24.60;43.40;;;;;;4986339;28;114174;-79
2023/07/31 08:57:37;;;;;;;5.95;2.53;;;24.60;43.70;;;;;;4983431;28;116994;-78
2023/07/31 09:00:06;;;;;;;6.03;3.30;;;24.80;43.20;;;;;;4984167;28;114767;-79
2023/07/31 09:03:00;;;;;;;6.53;3.03;;;24.80;42.80;;;;;;4985771;28;114277;-79
2023/07/31 09:05:28;;;;;;;;;;;24.80;42.40;;;;;;4986442;28;114232;-78
2023/07/31 09:07:56;;;;;;;5.95;2.95;;;24.90;43.70;;;;;;4985046;28;115473;-80
2023/07/31 09:10:23;;;;;;;4.88;2.35;;;24.80;42.40;;;;;;4984283;28;117738;-78
2023/07/31 09:12:53;;;;;;;5.03;2.50;;;24.90;41.60;;;;;;4986513;28;114315;-78
2023/07/31 09:15:20;;;;;;;4.78;2.25;;;24.90;41.20;;;;;;4985689;28;114723;-77
2023/07/31 09:18:03;;;;;;;6.63;2.83;;;25.00;42.30;;;;;;4983717;28;115507;-78
2023/07/31 09:20:31;;;;;;;4.88;3.10;;;25.00;41.70;;;;;;4983656;28;114644;-78
2023/07/31 09:23:12;;;;;;;5.05;3.05;;;25.10;41.50;;;;;;4984130;28;114066;-78
2023/07/31 09:25:39;;;;;;;6.97;2.50;;;25.20;42.40;;;;;;4985276;28;114303;-78
2023/07/31 09:28:07;;;;;;;3.90;2.33;;;25.10;42.00;;;;;;4971340;28;114490;-79
2023/07/31 09:30:46;;;;;;;6.45;2.70;;;25.20;41.10;;;;;;4987132;28;115778;-79
2023/07/31 09:33:13;;;;;;;4.68;2.58;;;25.30;41.90;;;;;;4988170;28;114382;-78
2023/07/31 09:35:41;;;;;;;4.97;2.58;;;25.20;41.60;;;;;;4987921;28;114571;-79
2023/07/31 09:38:12;;;;;;;4.93;2.53;;;25.20;41.40;;;;;;4970825;28;114939;-80
2023/07/31 09:40:46;;;;;;;7.43;2.85;;;25.30;41.40;;;;;;4987267;28;114748;-80
2023/07/31 09:43:17;;;;;;;5.55;2.42;;;25.30;41.80;;;;;;4987954;28;114215;-78
2023/07/31 09:45:45;;;;;;;4.50;2.53;;;25.40;41.50;;;;;;4989298;28;114185;-79
2023/07/31 09:48:16;;;;;;;5.82;2.20;;;25.40;41.00;;;;;;4986521;28;114902;-79
2023/07/31 09:50:48;;;;;;;4.68;2.30;;;25.30;40.20;;;;;;4986988;28;114953;-79
2023/07/31 09:53:15;;;;;;;6.10;2.28;;;25.30;40.40;;;;;;4987495;28;114077;-79
2023/07/31 09:55:42;;;;;;;7.43;2.38;;;25.10;40.20;;;;;;4987840;28;114428;-77
2023/07/31 09:58:10;;;;;;;3.95;2.45;;;25.00;41.10;;;;;;4987920;28;114962;-78
2023/07/31 10:00:37;;;;;;;6.43;2.38;;;25.10;42.00;;;;;;4970631;28;115045;-79
2023/07/31 10:03:06;;;;;;;5.22;2.20;;;25.00;41.00;;;;;;4987404;28;114536;-79
2023/07/31 10:05:45;;;;;;;5.35;2.72;;;25.00;41.80;;;;;;4988272;28;114186;-79
2023/07/31 10:08:14;;;;;;;2.92;1.70;;;25.00;41.00;;;;;;4986467;28;115005;-79
2023/07/31 10:10:41;;;;;;;4.45;2.20;;;24.90;40.30;;;;;;4986803;28;114454;-79
2023/07/31 10:13:08;;;;;;;4.85;2.40;;;25.00;39.90;;;;;;4986832;28;114513;-79
2023/07/31 10:15:36;;;;;;;5.47;2.20;;;25.20;39.50;;;;;;4987670;28;114290;-81
2023/07/31 10:18:03;;;;;;;4.25;2.30;;;25.30;40.00;;;;;;4970351;28;115516;-79
2023/07/31 10:20:30;;;;;;;6.53;2.47;;;25.40;40.20;;;;;;4970211;28;114687;-78
2023/07/31 10:22:57;;;;;;;4.85;2.30;;;25.50;39.30;;;;;;4987673;28;114226;-78
2023/07/31 10:25:24;;;;;;;6.78;2.67;;;25.50;39.10;;;;;;4971017;28;114452;-80
2023/07/31 10:27:52;;;;;;;3.92;2.20;;;25.60;38.80;;;;;;4987484;28;115264;-79
2023/07/31 10:30:22;;;;;;;5.15;1.92;;;25.70;38.20;;;;;;4986455;28;114688;-79
2023/07/31 10:32:50;;;;;;;4.78;2.55;;;25.80;37.50;;;;;;4987280;28;114352;-80
2023/07/31 10:35:17;;;;;;;4.05;1.90;;;25.80;38.00;;;;;;4988312;28;114159;-79
2023/07/31 10:37:44;;;;;;;5.60;2.05;;;25.70;37.40;;;;;;4986392;28;114844;-79
2023/07/31 10:40:38;;;;;;;5.80;2.30;;;25.80;37.60;;;;;;4987875;28;114628;-79
2023/07/31 10:43:05;;;;;;;4.30;2.00;;;25.80;38.10;;;;;;4987068;28;114319;-80
2023/07/31 10:45:44;;;;;;;4.25;2.17;;;25.80;38.10;;;;;;4989464;28;114335;-79
2023/07/31 10:48:15;;;;;;;5.80;2.17;;;25.90;37.90;;;;;;4987037;28;116957;-79
2023/07/31 10:50:50;;;;;;;5.90;2.35;;;25.90;37.30;;;;;;4987070;28;114692;-79
2023/07/31 10:53:31;;;;;;;6.78;4.45;;;26.00;37.80;;;;;;4986961;28;114336;-80
2023/07/31 10:55:59;;;;;;;5.13;1.95;;;26.00;38.30;;;;;;4987310;28;114369;-78
2023/07/31 10:58:26;;;;;;;4.85;2.22;;;26.00;37.60;;;;;;4987042;28;114804;-79
2023/07/31 11:00:58;;;;;;;4.60;1.95;;;26.00;37.20;;;;;;4987078;28;114562;-77
2023/07/31 11:03:26;;;;;;;4.43;2.05;;;26.10;36.40;;;;;;4987056;28;114373;-79
2023/07/31 11:06:03;;;;;;;4.40;1.98;;;26.10;36.20;;;;;;4987796;28;114250;-79
2023/07/31 11:08:34;;;;;;;4.18;2.05;;;26.10;36.90;;;;;;4969684;28;115410;-79
2023/07/31 11:11:01;;;;;;;4.28;1.88;;;26.00;35.80;;;;;;4985888;28;114897;-79
2023/07/31 11:13:45;;;;;;;5.32;1.98;;;26.00;35.80;;;;;;4986102;28;114327;-80
2023/07/31 11:16:13;;;;;;;3.97;1.85;;;26.10;36.30;;;;;;4987665;28;114167;-79
2023/07/31 11:18:44;;;;;;;8.30;2.00;;;26.10;36.80;;;;;;4985439;28;114989;-80
2023/07/31 11:21:22;;;;;;;4.97;2.03;;;26.10;37.00;;;;;;4968851;28;114776;-78
2023/07/31 11:23:50;;;;;;;5.10;1.85;;;26.10;36.90;;;;;;4985838;28;114675;-79
2023/07/31 11:26:18;;;;;;;3.50;1.80;;;26.10;36.30;;;;;;4988283;28;114235;-79
2023/07/31 11:28:48;;;;;;;4.63;2.30;;;26.10;36.40;;;;;;4986080;28;114983;-79
2023/07/31 11:31:16;;;;;;;4.90;1.60;;;26.10;36.30;;;;;;4985568;28;114553;-79
2023/07/31 11:33:43;;;;;;;8.27;2.20;;;26.00;36.20;;;;;;4986563;28;114165;-79
2023/07/31 11:36:20;;;;;;;4.53;1.77;;;26.00;35.80;;;;;;4987593;28;114378;-79
2023/07/31 11:38:47;;;;;;;5.53;1.80;;;26.10;36.50;;;;;;4986113;28;114899;-79
2023/07/31 11:41:18;;;;;;;3.80;1.52;;;26.10;36.00;;;;;;4986301;28;114672;-79
2023/07/31 11:43:48;;;;;;;5.68;1.80;;;26.10;36.20;;;;;;4986000;28;114443;-80
2023/07/31 11:46:19;;;;;;;4.00;2.03;;;26.10;36.50;;;;;;4986527;28;114432;-79
2023/07/31 11:48:46;;;;;;;4.72;1.77;;;26.10;36.50;;;;;;4985113;28;115398;-78
2023/07/31 11:51:13;;;;;;;4.65;1.70;;;26.10;35.30;;;;;;4984942;28;114719;-77
2023/07/31 11:53:54;;;;;;;5.38;1.67;;;26.00;35.50;;;;;;4968918;28;114181;-80
2023/07/31 11:56:22;;;;;;;5.82;1.70;;;26.10;36.00;;;;;;4969619;28;114564;-78
2023/07/31 11:58:59;;;;;;;4.50;1.88;;;26.00;36.00;;;;;;4968848;28;114802;-79
2023/07/31 12:01:27;;;;;;;4.50;1.75;;;26.00;36.40;;;;;;4987128;28;114650;-80
2023/07/31 12:03:54;;;;;;;4.35;1.63;;;25.90;36.40;;;;;;4953194;28;114318;-79
2023/07/31 12:06:22;;;;;;;4.38;1.92;;;26.00;36.50;;;;;;4986773;28;114149;-78
2023/07/31 12:08:49;;;;;;;5.00;1.67;;;26.00;36.80;;;;;;4984944;28;115483;-79
2023/07/31 12:11:17;;;;;;;3.67;1.80;;;26.00;36.60;;;;;;4986986;28;115116;-79
2023/07/31 12:13:45;;;;;;;3.38;1.50;;;26.00;37.30;;;;;;4987337;28;114263;-78
2023/07/31 12:16:12;;;;;;;4.95;2.05;;;26.00;36.90;;;;;;4969141;28;114385;-82
2023/07/31 12:18:39;;;;;;;5.18;2.10;;;26.10;36.50;;;;;;4985146;28;116183;-80
2023/07/31 12:21:08;;;;;;;5.63;2.15;;;26.00;36.80;;;;;;4968258;28;114665;-78
2023/07/31 12:23:36;;;;;;;3.97;2.00;;;26.00;36.10;;;;;;4985631;28;114315;-78
2023/07/31 12:26:05;;;;;;;5.63;1.58;;;26.00;36.90;;;;;;4986942;28;114253;-78
2023/07/31 12:28:43;;;;;;;4.22;1.73;;;25.90;36.40;;;;;;4985296;28;114832;-79
2023/07/31 12:31:12;;;;;;;5.03;1.70;;;26.00;36.90;;;;;;4968777;28;114649;-79
2023/07/31 12:33:40;;;;;;;4.65;1.50;;;25.90;36.50;;;;;;4986648;28;114264;-79
2023/07/31 12:36:11;;;;;;;4.25;1.60;;;25.80;36.20;;;;;;4987214;28;114257;-79
2023/07/31 12:38:39;;;;;;;3.60;1.60;;;25.70;36.50;;;;;;4986022;28;115407;-79
2023/07/31 12:41:08;;;;;;;4.07;1.50;;;25.60;37.10;;;;;;4984243;28;117131;-78
2023/07/31 12:43:36;;;;;;;3.55;1.70;;;25.60;37.00;;;;;;4986235;28;114182;-79